Time;durP1;ratioP1;P1;durP2;ratioP2;P2;SDS_P1;SDS_P2;PMS_P1;PMS_P2;Temp;Humidity;BMP_temperature;BMP_pressure;BME280_temperature;BME280_humidity;BME280_pressure;Samples;Min_cycle;Max_cycle;Signal;HPM_P1;HPM_P2
2022/07/21 00:01:14;;;;;;;1999.90;999.90;;;19.00;99.90;;;;;;5074434;28;20191;-58
2022/07/21 00:03:41;;;;;;;1999.90;999.90;;;19.00;99.90;;;;;;5074803;28;20213;-59
2022/07/21 00:06:08;;;;;;;1999.90;999.90;;;19.00;99.90;;;;;;5074667;28;20203;-60
2022/07/21 00:08:35;;;;;;;1999.90;999.90;;;18.90;99.90;;;;;;5074581;28;20553;-60
2022/07/21 00:11:03;;;;;;;1999.90;999.90;;;18.90;99.90;;;;;;5074697;28;20195;-61
2022/07/21 00:13:30;;;;;;;1999.90;999.90;;;18.90;99.90;;;;;;5074430;28;20207;-60
2022/07/21 00:15:59;;;;;;;1999.90;999.90;;;18.80;99.90;;;;;;5074130;28;20718;-60
2022/07/21 00:18:28;;;;;;;1999.90;999.90;;;18.80;99.90;;;;;;5074616;28;20187;-60
2022/07/21 00:20:56;;;;;;;1999.90;999.90;;;18.80;99.90;;;;;;5074543;28;20203;-61
2022/07/21 00:23:23;;;;;;;1999.90;999.90;;;18.90;99.90;;;;;;5074446;28;20202;-60
2022/07/21 00:25:51;;;;;;;1999.90;999.90;;;18.90;99.90;;;;;;5074305;28;20201;-60
2022/07/21 00:28:18;;;;;;;1999.90;999.90;;;19.00;99.90;;;;;;5074388;28;20223;-60
2022/07/21 00:30:46;;;;;;;1999.90;999.90;;;19.00;99.90;;;;;;5074336;28;20195;-60
2022/07/21 00:33:14;;;;;;;1999.90;999.90;;;19.00;99.90;;;;;;5074250;28;20194;-60
2022/07/21 00:35:42;;;;;;;1999.90;999.90;;;19.10;99.90;;;;;;5073797;28;20235;-60
2022/07/21 00:38:09;;;;;;;1999.90;999.90;;;19.10;99.90;;;;;;5074246;28;20178;-60
2022/07/21 00:40:36;;;;;;;1999.90;999.90;;;19.10;99.90;;;;;;5073807;28;20198;-60
2022/07/21 00:43:03;;;;;;;1999.90;999.90;;;19.00;99.90;;;;;;5073792;28;20569;-60
2022/07/21 00:45:30;;;;;;;1999.90;999.90;;;19.10;99.90;;;;;;5073815;28;20664;-61
2022/07/21 00:47:57;;;;;;;1999.90;999.90;;;19.10;99.90;;;;;;5073575;28;20574;-60
2022/07/21 00:50:26;;;;;;;1999.90;999.90;;;19.20;99.90;;;;;;5073489;28;20229;-60
2022/07/21 00:52:53;;;;;;;1999.90;999.90;;;19.10;99.90;;;;;;5073796;28;20205;-60
2022/07/21 00:55:22;;;;;;;1999.90;999.90;;;19.10;99.90;;;;;;5073571;28;20200;-61
2022/07/21 00:57:49;;;;;;;1999.90;999.90;;;19.10;99.90;;;;;;5073477;28;20207;-60
2022/07/21 01:00:20;;;;;;;1999.90;999.90;;;19.00;99.90;;;;;;5073516;28;20694;-60
2022/07/21 01:02:47;;;;;;;1999.90;999.90;;;19.00;99.90;;;;;;5073453;28;20193;-60
2022/07/21 01:05:15;;;;;;;1999.90;999.90;;;19.00;99.90;;;;;;5073622;28;20199;-60
2022/07/21 01:07:47;;;;;;;1999.90;999.90;;;19.00;99.90;;;;;;5073358;28;20203;-60
2022/07/21 01:10:15;;;;;;;1999.90;999.90;;;18.90;99.90;;;;;;5073247;28;20244;-60
2022/07/21 01:12:43;;;;;;;1999.90;999.90;;;18.90;99.90;;;;;;5073200;28;20205;-60
2022/07/21 01:15:12;;;;;;;1999.90;999.90;;;18.90;99.90;;;;;;5073140;28;20244;-60
2022/07/21 01:17:39;;;;;;;1999.90;999.90;;;18.90;99.90;;;;;;5073389;28;20199;-60
2022/07/21 01:20:09;;;;;;;1999.90;999.90;;;18.90;99.90;;;;;;5072972;28;20228;-58
2022/07/21 01:22:39;;;;;;;1999.90;999.90;;;18.90;99.90;;;;;;5073247;28;20206;-58
2022/07/21 01:25:07;;;;;;;1999.90;999.90;;;18.90;99.90;;;;;;5073011;28;20248;-58
2022/07/21 01:27:34;;;;;;;1999.90;999.90;;;18.80;99.90;;;;;;5072499;28;20190;-58
2022/07/21 01:30:01;;;;;;;1999.90;999.90;;;18.80;99.90;;;;;;5072965;28;20204;-58
2022/07/21 01:32:28;;;;;;;1999.90;999.90;;;18.80;99.90;;;;;;5072772;28;20544;-58
2022/07/21 01:34:55;;;;;;;1999.90;999.90;;;18.80;99.90;;;;;;5072862;28;20206;-58
2022/07/21 01:37:23;;;;;;;1999.90;999.90;;;18.80;99.90;;;;;;5072566;28;20242;-58
2022/07/21 01:42:37;;;;;;;1999.90;999.90;;;18.70;99.90;;;;;;5072980;28;20196;-58
2022/07/21 01:45:06;;;;;;;1999.90;999.90;;;18.80;99.90;;;;;;5072921;28;20198;-58
2022/07/21 01:47:34;;;;;;;1999.90;999.90;;;18.80;99.90;;;;;;5072894;28;20201;-58
2022/07/21 01:50:02;;;;;;;1999.90;999.90;;;18.80;99.90;;;;;;5072716;28;20213;-58
2022/07/21 01:52:29;;;;;;;1999.90;999.90;;;18.80;99.90;;;;;;5072631;28;20194;-58
2022/07/21 01:54:57;;;;;;;1999.90;999.90;;;18.80;99.90;;;;;;5072492;28;20199;-58
2022/07/21 01:57:24;;;;;;;1999.90;999.90;;;18.80;99.90;;;;;;5072785;28;20224;-58
2022/07/21 01:59:51;;;;;;;1999.90;999.90;;;18.80;99.90;;;;;;5072305;28;20195;-58
2022/07/21 02:02:20;;;;;;;1999.90;999.90;;;18.80;99.90;;;;;;5072548;28;20205;-58
2022/07/21 02:04:48;;;;;;;1999.90;999.90;;;18.90;99.90;;;;;;5072653;28;20210;-58
2022/07/21 02:07:15;;;;;;;1999.90;999.90;;;18.90;99.90;;;;;;5072653;28;20206;-58
2022/07/21 02:09:42;;;;;;;1999.90;999.90;;;18.90;99.90;;;;;;5072483;28;20222;-58
2022/07/21 02:12:11;;;;;;;1999.90;999.90;;;18.90;99.90;;;;;;5072541;28;20207;-58
2022/07/21 02:14:39;;;;;;;1999.90;999.90;;;19.00;99.90;;;;;;5072064;28;20698;-58
2022/07/21 02:17:06;;;;;;;1999.90;999.90;;;19.00;99.90;;;;;;5072413;28;20190;-58
2022/07/21 02:19:33;;;;;;;1999.90;999.90;;;19.10;99.90;;;;;;5071949;28;20562;-58
2022/07/21 02:22:00;;;;;;;1999.90;999.90;;;19.00;99.90;;;;;;5072221;28;20191;-58
2022/07/21 02:24:27;;;;;;;1999.90;999.90;;;19.00;99.90;;;;;;5072109;28;20199;-58
2022/07/21 02:26:54;;;;;;;1999.90;999.90;;;19.10;99.90;;;;;;5071927;28;20195;-59
2022/07/21 02:29:22;;;;;;;1999.90;999.90;;;19.00;99.90;;;;;;5072053;28;20710;-58
2022/07/21 02:31:49;;;;;;;1999.90;999.90;;;19.10;99.90;;;;;;5072121;28;20207;-58
2022/07/21 02:34:17;;;;;;;1999.90;999.90;;;19.10;99.90;;;;;;5072145;28;20191;-58
2022/07/21 02:36:44;;;;;;;1999.90;999.90;;;19.10;99.90;;;;;;5071559;28;20229;-58
2022/07/21 02:39:11;;;;;;;1999.90;999.90;;;19.00;99.90;;;;;;5072000;28;20193;-59
2022/07/21 02:41:38;;;;;;;1999.90;999.90;;;19.00;99.90;;;;;;5071853;28;20200;-58
2022/07/21 02:44:05;;;;;;;1999.90;999.90;;;19.00;99.90;;;;;;5071749;28;20207;-58
2022/07/21 02:46:34;;;;;;;1999.90;999.90;;;19.00;99.90;;;;;;5072009;28;20214;-58
2022/07/21 02:49:01;;;;;;;1999.90;999.90;;;19.00;99.90;;;;;;5071550;28;20225;-59
2022/07/21 02:51:28;;;;;;;1999.90;999.90;;;19.00;99.90;;;;;;5071659;28;20699;-58
2022/07/21 02:53:55;;;;;;;1999.90;999.90;;;19.10;99.90;;;;;;5071952;28;20224;-58
2022/07/21 02:56:22;;;;;;;1999.90;999.90;;;19.10;99.90;;;;;;5071949;28;20682;-58
2022/07/21 02:58:49;;;;;;;1999.90;999.90;;;19.10;99.90;;;;;;5071879;28;20273;-58
2022/07/21 03:01:18;;;;;;;1999.90;999.90;;;19.00;99.90;;;;;;5071665;28;20567;-58
2022/07/21 03:03:47;;;;;;;1999.90;999.90;;;19.10;99.90;;;;;;5071664;28;20209;-58
2022/07/21 03:06:14;;;;;;;1999.90;999.90;;;19.10;99.90;;;;;;5071898;28;20193;-58
2022/07/21 03:08:41;;;;;;;1999.90;999.90;;;19.10;99.90;;;;;;5071799;28;20199;-58
2022/07/21 03:11:08;;;;;;;1999.90;999.90;;;19.00;99.90;;;;;;5071916;28;20215;-58
2022/07/21 03:13:35;;;;;;;1999.90;999.90;;;19.00;99.90;;;;;;5071514;28;20213;-58
2022/07/21 03:16:02;;;;;;;1999.90;999.90;;;19.10;99.90;;;;;;5071767;28;20214;-58
2022/07/21 03:18:29;;;;;;;1999.90;999.90;;;19.00;99.90;;;;;;5071588;28;20201;-58
2022/07/21 03:20:58;;;;;;;1999.90;999.90;;;19.00;99.90;;;;;;5071747;28;20193;-58
2022/07/21 03:23:25;;;;;;;1999.90;999.90;;;19.10;99.90;;;;;;5071628;28;20201;-58
2022/07/21 03:25:52;;;;;;;1999.90;999.90;;;19.00;99.90;;;;;;5071672;28;20547;-58
2022/07/21 03:28:19;;;;;;;1999.90;999.90;;;19.00;99.90;;;;;;5071323;28;20678;-58
2022/07/21 03:30:46;;;;;;;1999.90;999.90;;;19.00;99.90;;;;;;5071234;28;20215;-60
2022/07/21 03:33:13;;;;;;;1999.90;999.90;;;19.00;99.90;;;;;;5071106;28;20207;-60
2022/07/21 03:35:41;;;;;;;1999.90;999.90;;;18.90;99.90;;;;;;5071214;28;20235;-60
2022/07/21 03:38:10;;;;;;;1999.90;999.90;;;18.90;99.90;;;;;;5071574;28;20184;-61
2022/07/21 03:40:39;;;;;;;1999.90;999.90;;;18.90;99.90;;;;;;5071609;28;20191;-60
2022/07/21 03:43:07;;;;;;;1999.90;999.90;;;18.90;99.90;;;;;;5071747;28;20191;-60
2022/07/21 03:45:36;;;;;;;1999.90;999.90;;;18.80;99.90;;;;;;5071498;28;20195;-60
2022/07/21 03:48:06;;;;;;;1999.90;999.90;;;18.90;99.90;;;;;;5071006;28;20688;-60
2022/07/21 03:50:35;;;;;;;1999.90;999.90;;;18.80;99.90;;;;;;5073738;28;20223;-60
2022/07/21 03:53:02;;;;;;;1999.90;999.90;;;18.80;99.90;;;;;;5075113;28;20202;-60
2022/07/21 03:55:31;;;;;;;1999.90;999.90;;;18.80;99.90;;;;;;5074965;28;20206;-61
2022/07/21 03:58:01;;;;;;;1999.90;999.90;;;18.80;99.90;;;;;;5074686;28;20195;-58
2022/07/21 04:00:30;;;;;;;1999.90;999.90;;;18.80;99.90;;;;;;5075302;28;20206;-58
2022/07/21 04:02:58;;;;;;;1999.90;999.90;;;18.80;99.90;;;;;;5074997;28;20199;-58
2022/07/21 04:05:26;;;;;;;1999.90;999.90;;;18.80;99.90;;;;;;5074888;28;20213;-60
2022/07/21 04:07:53;;;;;;;1999.90;999.90;;;18.80;99.90;;;;;;5074541;28;20684;-58
2022/07/21 04:10:24;;;;;;;1999.90;999.90;;;18.80;99.90;;;;;;5074662;28;20214;-58
2022/07/21 04:12:52;;;;;;;1999.90;999.90;;;18.80;99.90;;;;;;5074724;28;20175;-59
2022/07/21 04:15:20;;;;;;;1999.90;999.90;;;18.70;99.90;;;;;;5074435;28;20202;-58
2022/07/21 04:17:48;;;;;;;1999.90;999.90;;;18.70;99.90;;;;;;5074606;28;20206;-59
2022/07/21 04:20:16;;;;;;;1999.90;999.90;;;18.70;99.90;;;;;;5074152;28;20191;-58
2022/07/21 04:22:43;;;;;;;1999.90;999.90;;;18.60;99.90;;;;;;5074432;28;20211;-59
2022/07/21 04:25:11;;;;;;;1999.90;999.90;;;18.60;99.90;;;;;;5074035;28;20687;-59
2022/07/21 04:27:39;;;;;;;1999.90;999.90;;;18.60;99.90;;;;;;5077016;28;20254;-59
2022/07/21 04:30:10;;;;;;;1999.90;999.90;;;18.60;99.90;;;;;;5084435;28;20207;-59
2022/07/21 04:32:37;;;;;;;1999.90;999.90;;;18.70;99.90;;;;;;5082967;28;20180;-61
2022/07/21 04:35:05;;;;;;;1999.90;999.90;;;18.70;99.90;;;;;;5090822;28;20567;-61
2022/07/21 04:37:32;;;;;;;1999.90;999.90;;;18.70;99.90;;;;;;5090374;28;20263;-59
2022/07/21 04:40:00;;;;;;;1999.90;999.90;;;18.70;99.90;;;;;;5074230;28;20195;-59
2022/07/21 04:42:27;;;;;;;1999.90;999.90;;;18.70;99.90;;;;;;5079329;28;20196;-59
2022/07/21 04:44:54;;;;;;;1999.90;999.90;;;18.70;99.90;;;;;;5073794;28;20190;-59
2022/07/21 04:47:23;;;;;;;1999.90;999.90;;;18.70;99.90;;;;;;5073635;28;20187;-59
2022/07/21 04:49:50;;;;;;;1999.90;999.90;;;18.70;99.90;;;;;;5073750;28;20256;-59
2022/07/21 04:52:17;;;;;;;1999.90;999.90;;;18.70;99.90;;;;;;5073731;28;20198;-59
2022/07/21 04:54:44;;;;;;;1999.90;999.90;;;18.70;99.90;;;;;;5073719;28;20201;-61
2022/07/21 04:57:11;;;;;;;1999.90;999.90;;;18.80;99.90;;;;;;5088740;28;20194;-60
2022/07/21 04:59:38;;;;;;;1999.90;999.90;;;18.90;99.90;;;;;;5093937;28;20194;-59
2022/07/21 05:02:06;;;;;;;1999.90;999.90;;;19.00;99.90;;;;;;5093415;28;20198;-59
2022/07/21 05:04:35;;;;;;;1999.90;999.90;;;19.20;99.90;;;;;;5093598;28;20202;-58
2022/07/21 05:07:02;;;;;;;1999.90;999.90;;;19.20;99.90;;;;;;5093822;28;20194;-59
2022/07/21 05:09:29;;;;;;;1999.90;999.90;;;19.30;99.90;;;;;;5092197;28;20194;-59
2022/07/21 05:11:56;;;;;;;1999.90;999.90;;;19.30;99.90;;;;;;5080677;28;20191;-59
2022/07/21 05:14:23;;;;;;;1999.90;999.90;;;19.20;99.90;;;;;;5081107;28;20197;-59
2022/07/21 05:16:50;;;;;;;1999.90;999.90;;;19.10;99.90;;;;;;5087080;28;20191;-59
2022/07/21 05:19:17;;;;;;;1999.90;999.90;;;19.10;99.90;;;;;;5092888;28;20208;-59
2022/07/21 05:21:46;;;;;;;1999.90;999.90;;;19.00;99.90;;;;;;5093527;28;20201;-59
2022/07/21 05:24:14;;;;;;;1999.90;999.90;;;19.10;99.90;;;;;;5092432;28;20266;-60
2022/07/21 05:26:41;;;;;;;1999.90;999.90;;;19.10;99.90;;;;;;5093206;28;20202;-59
2022/07/21 05:29:08;;;;;;;1999.90;999.90;;;19.10;99.90;;;;;;5093497;28;20235;-59
2022/07/21 05:31:35;;;;;;;1999.90;999.90;;;19.20;99.90;;;;;;5092985;28;20592;-59
2022/07/21 05:34:02;;;;;;;1999.90;999.90;;;19.20;99.90;;;;;;5093129;28;20198;-58
2022/07/21 05:36:29;;;;;;;1999.90;999.90;;;19.20;99.90;;;;;;5092841;28;20237;-60
2022/07/21 05:38:58;;;;;;;1999.90;999.90;;;19.10;99.90;;;;;;5092721;28;20206;-61
2022/07/21 05:41:25;;;;;;;1999.90;999.90;;;19.10;99.90;;;;;;5092962;28;20198;-59
2022/07/21 05:43:52;;;;;;;1999.90;999.90;;;19.10;99.90;;;;;;5093212;28;20201;-59
2022/07/21 05:46:19;;;;;;;1999.90;999.90;;;19.20;99.90;;;;;;5092406;28;20552;-59
2022/07/21 05:48:46;;;;;;;1999.90;999.90;;;19.20;99.90;;;;;;5092631;28;20205;-60
2022/07/21 05:51:13;;;;;;;1999.90;999.90;;;19.30;99.90;;;;;;5092706;28;20210;-59
2022/07/21 05:53:40;;;;;;;1999.90;999.90;;;19.30;99.90;;;;;;5093003;28;20202;-59
2022/07/21 05:56:09;;;;;;;1999.90;999.90;;;19.30;99.90;;;;;;5093061;28;20202;-59
2022/07/21 05:58:36;;;;;;;1999.90;999.90;;;19.50;99.90;;;;;;5092526;28;20243;-58
2022/07/21 06:01:09;;;;;;;1999.90;999.90;;;19.60;99.90;;;;;;5085015;28;20183;-59
2022/07/21 06:03:36;;;;;;;1999.90;999.90;;;19.70;99.90;;;;;;5072221;28;20186;-59
2022/07/21 06:06:04;;;;;;;1999.90;999.90;;;19.80;99.90;;;;;;5071940;28;20207;-59
2022/07/21 06:08:31;;;;;;;1999.90;999.90;;;19.70;99.90;;;;;;5072438;28;20689;-59
2022/07/21 06:10:58;;;;;;;1999.90;999.90;;;19.80;99.90;;;;;;5072108;28;20215;-59
2022/07/21 06:13:27;;;;;;;1999.90;999.90;;;19.80;99.90;;;;;;5071236;28;20198;-59
2022/07/21 06:15:54;;;;;;;1999.90;999.90;;;19.70;99.90;;;;;;5071821;28;20222;-59
2022/07/21 06:18:21;;;;;;;1999.90;999.90;;;19.70;99.90;;;;;;5072213;28;20199;-58
2022/07/21 06:20:48;;;;;;;1999.90;999.90;;;19.80;99.90;;;;;;5072286;28;20195;-58
2022/07/21 06:23:15;;;;;;;1999.90;999.90;;;19.80;99.90;;;;;;5071898;28;20199;-61
2022/07/21 06:25:42;;;;;;;1999.90;999.90;;;19.70;99.90;;;;;;5072242;28;20249;-60
2022/07/21 06:28:09;;;;;;;1999.90;999.90;;;19.70;99.90;;;;;;5072273;28;20188;-59
2022/07/21 06:30:38;;;;;;;1999.90;999.90;;;19.90;99.90;;;;;;5071853;28;20846;-60
2022/07/21 06:33:05;;;;;;;1999.90;999.90;;;19.90;99.90;;;;;;5071415;28;20217;-59
2022/07/21 06:35:32;;;;;;;1999.90;999.90;;;19.90;99.90;;;;;;5071539;28;20227;-59
2022/07/21 06:37:59;;;;;;;1999.90;999.90;;;20.00;99.90;;;;;;5071779;28;20660;-59
2022/07/21 06:40:26;;;;;;;1999.90;999.90;;;19.90;99.90;;;;;;5071802;28;20695;-59
2022/07/21 06:42:53;;;;;;;1999.90;999.90;;;19.90;99.90;;;;;;5071425;28;20195;-60
2022/07/21 06:45:20;;;;;;;1999.90;999.90;;;20.00;99.90;;;;;;5072099;28;20199;-59
2022/07/21 06:47:49;;;;;;;1999.90;999.90;;;20.10;99.90;;;;;;5071833;28;20199;-60
2022/07/21 06:50:16;;;;;;;1999.90;999.90;;;20.00;99.90;;;;;;5071646;28;20205;-59
2022/07/21 06:52:43;;;;;;;1999.90;999.90;;;20.10;99.90;;;;;;5071922;28;20205;-59
2022/07/21 06:55:11;;;;;;;1999.90;999.90;;;20.10;99.90;;;;;;5071927;28;20209;-61
2022/07/21 06:57:38;;;;;;;1999.90;999.90;;;20.20;99.90;;;;;;5071974;28;20239;-60
2022/07/21 07:00:07;;;;;;;1999.90;999.90;;;20.30;99.90;;;;;;5071806;28;20200;-61
2022/07/21 07:02:34;;;;;;;1999.90;999.90;;;20.20;99.90;;;;;;5071612;28;20570;-60
2022/07/21 07:05:03;;;;;;;1999.90;999.90;;;20.20;99.90;;;;;;5071902;28;20199;-59
2022/07/21 07:07:30;;;;;;;1999.90;999.90;;;20.10;99.90;;;;;;5071586;28;20200;-59
2022/07/21 07:09:58;;;;;;;1999.90;999.90;;;20.00;99.90;;;;;;5071406;28;20202;-60
2022/07/21 07:12:26;;;;;;;1999.90;999.90;;;20.10;99.90;;;;;;5071655;28;20220;-60
2022/07/21 07:14:53;;;;;;;1999.90;999.90;;;20.10;99.90;;;;;;5071632;28;20203;-59
2022/07/21 07:17:20;;;;;;;1999.90;999.90;;;20.00;99.90;;;;;;5071097;28;20836;-59
2022/07/21 07:19:47;;;;;;;1999.90;999.90;;;20.00;99.90;;;;;;5071286;28;20213;-59
2022/07/21 07:22:16;;;;;;;1999.90;999.90;;;20.00;99.90;;;;;;5071641;28;20203;-60
2022/07/21 07:24:43;;;;;;;1999.90;999.90;;;20.10;99.90;;;;;;5072727;28;20186;-59
2022/07/21 07:27:10;;;;;;;1999.90;999.90;;;20.20;99.90;;;;;;5074152;28;20672;-59
2022/07/21 07:29:37;;;;;;;1999.90;999.90;;;20.20;99.90;;;;;;5073882;28;20193;-58
2022/07/21 07:32:05;;;;;;;1999.90;999.90;;;20.20;99.90;;;;;;5074735;28;20221;-61
2022/07/21 07:34:32;;;;;;;1999.90;999.90;;;20.40;99.90;;;;;;5074126;28;20194;-60
2022/07/21 07:36:59;;;;;;;1999.90;999.90;;;20.40;99.90;;;;;;5073538;28;20241;-61
2022/07/21 07:39:28;;;;;;;1999.90;999.90;;;20.50;99.90;;;;;;5074518;28;20569;-61
2022/07/21 07:41:55;;;;;;;1999.90;999.90;;;20.50;99.90;;;;;;5074541;28;20255;-59
2022/07/21 07:44:23;;;;;;;1999.90;999.90;;;20.50;99.90;;;;;;5075080;28;20206;-59
2022/07/21 07:46:50;;;;;;;1999.90;999.90;;;20.60;99.90;;;;;;5073854;28;20708;-59
2022/07/21 07:49:18;;;;;;;1999.90;999.90;;;20.60;99.90;;;;;;5073279;28;20207;-59
2022/07/21 07:51:45;;;;;;;1999.90;999.90;;;20.70;99.90;;;;;;5074520;28;20584;-60
2022/07/21 07:54:12;;;;;;;1999.90;999.90;;;20.60;99.90;;;;;;5074824;28;20566;-59
2022/07/21 07:56:41;;;;;;;1999.90;999.90;;;20.70;99.90;;;;;;5074986;28;20203;-60
2022/07/21 07:59:09;;;;;;;1999.90;999.90;;;20.90;99.90;;;;;;5073860;28;20197;-59
2022/07/21 08:01:36;;;;;;;1999.90;999.90;;;21.00;99.90;;;;;;5074337;28;20192;-59
2022/07/21 08:04:03;;;;;;;1999.90;999.90;;;20.90;99.90;;;;;;5073982;28;20688;-58
2022/07/21 08:06:30;;;;;;;1999.90;999.90;;;20.90;99.90;;;;;;5073524;28;20199;-59
2022/07/21 08:08:57;;;;;;;1999.90;999.90;;;20.90;99.90;;;;;;5073163;28;20197;-59
2022/07/21 08:11:25;;;;;;;1999.90;999.90;;;21.10;99.90;;;;;;5073035;28;20221;-59
2022/07/21 08:13:53;;;;;;;1999.90;999.90;;;20.80;99.90;;;;;;5073687;28;20197;-59
2022/07/21 08:16:20;;;;;;;1999.90;999.90;;;20.60;99.90;;;;;;5074261;28;20201;-59
2022/07/21 08:18:47;;;;;;;1999.90;999.90;;;20.60;99.90;;;;;;5073994;28;20589;-59
2022/07/21 08:21:15;;;;;;;1999.90;999.90;;;20.60;99.90;;;;;;5074141;28;20202;-59
2022/07/21 08:23:42;;;;;;;1999.90;999.90;;;20.60;99.90;;;;;;5074054;28;20212;-59
2022/07/21 08:26:09;;;;;;;1999.90;999.90;;;20.40;99.90;;;;;;5072213;28;20192;-59
2022/07/21 08:28:36;;;;;;;1999.90;999.90;;;20.30;99.90;;;;;;5073333;28;20195;-59
2022/07/21 08:31:04;;;;;;;1999.90;999.90;;;20.30;99.90;;;;;;5073517;28;20690;-59
2022/07/21 08:33:32;;;;;;;1999.90;999.90;;;20.20;99.90;;;;;;5073820;28;20570;-59
2022/07/21 08:35:59;;;;;;;1999.90;999.90;;;20.10;99.90;;;;;;5073234;28;20231;-59
2022/07/21 08:38:26;;;;;;;1999.90;999.90;;;20.00;99.90;;;;;;5073873;28;20204;-60
2022/07/21 08:40:53;;;;;;;1999.90;999.90;;;20.00;99.90;;;;;;5074225;28;20195;-59
2022/07/21 08:43:20;;;;;;;1999.90;999.90;;;19.90;99.90;;;;;;5073817;28;20202;-59
2022/07/21 08:45:48;;;;;;;1999.90;999.90;;;19.90;99.90;;;;;;5074157;28;20191;-60
2022/07/21 08:48:19;;;;;;;1999.90;999.90;;;20.00;99.90;;;;;;5073220;28;20191;-59
2022/07/21 08:50:47;;;;;;;1999.90;999.90;;;20.00;99.90;;;;;;5073256;28;20183;-60
2022/07/21 08:53:14;;;;;;;1999.90;999.90;;;19.90;99.90;;;;;;5073627;28;20204;-60
2022/07/21 08:55:41;;;;;;;1999.90;999.90;;;19.90;99.90;;;;;;5073620;28;20203;-60
2022/07/21 08:58:11;;;;;;;1999.90;999.90;;;19.80;99.90;;;;;;5073465;28;20202;-59
2022/07/21 09:00:39;;;;;;;1999.90;999.90;;;19.80;99.90;;;;;;5073686;28;20201;-59
2022/07/21 09:03:14;;;;;;;1999.90;999.90;;;19.80;99.90;;;;;;5073450;28;20196;-58
2022/07/21 09:05:44;;;;;;;1999.90;999.90;;;19.80;99.90;;;;;;5073844;28;20198;-59
2022/07/21 09:08:12;;;;;;;1999.90;999.90;;;19.70;99.90;;;;;;5073773;28;20194;-59
2022/07/21 09:10:39;;;;;;;1999.90;999.90;;;19.70;99.90;;;;;;5073295;28;20668;-59
2022/07/21 09:13:07;;;;;;;1999.90;999.90;;;19.50;99.90;;;;;;5072877;28;20688;-60
2022/07/21 09:15:36;;;;;;;1999.90;999.90;;;19.50;99.90;;;;;;5073490;28;20201;-61
2022/07/21 09:18:08;;;;;;;1999.90;999.90;;;19.50;99.90;;;;;;5072714;28;20194;-60
2022/07/21 09:20:36;;;;;;;1999.90;999.90;;;19.40;99.90;;;;;;5073105;28;20205;-60
2022/07/21 09:23:07;;;;;;;1999.90;999.90;;;19.60;99.90;;;;;;5073073;28;20194;-61
2022/07/21 09:25:36;;;;;;;1999.90;999.90;;;19.40;99.90;;;;;;5073069;28;20198;-62
2022/07/21 09:28:15;;;;;;;1999.90;999.90;;;19.40;99.90;;;;;;5072894;28;20598;-62
2022/07/21 09:30:50;;;;;;;1999.90;999.90;;;19.40;99.90;;;;;;5072943;28;20671;-62
2022/07/21 09:33:22;;;;;;;1999.90;999.90;;;19.20;99.90;;;;;;5072676;28;20226;-62
2022/07/21 09:36:01;;;;;;;1999.90;999.90;;;19.30;99.90;;;;;;5072864;28;20231;-62
2022/07/21 09:38:32;;;;;;;1999.90;999.90;;;19.20;99.90;;;;;;5072846;28;20187;-61
2022/07/21 09:41:07;;;;;;;1999.90;999.90;;;19.10;99.90;;;;;;5072858;28;20213;-62
2022/07/21 09:43:42;;;;;;;1999.90;999.90;;;19.20;99.90;;;;;;5073076;28;20208;-62
2022/07/21 09:46:14;;;;;;;1999.90;999.90;;;19.20;99.90;;;;;;5072710;28;20179;-62
2022/07/21 09:48:43;;;;;;;1999.90;999.90;;;19.10;99.90;;;;;;5072201;28;20201;-61
2022/07/21 09:51:30;;;;;;;1999.90;999.90;;;19.20;99.90;;;;;;5072660;28;20556;-62
2022/07/21 09:54:01;;;;;;;1999.90;999.90;;;19.10;99.90;;;;;;5072580;28;20214;-62
2022/07/21 09:56:31;;;;;;;1999.90;999.90;;;19.20;99.90;;;;;;5072802;28;20203;-63
2022/07/21 09:59:01;;;;;;;1999.90;999.90;;;19.20;99.90;;;;;;5072925;28;20189;-62
2022/07/21 10:01:29;;;;;;;1999.90;999.90;;;19.30;99.90;;;;;;5072631;28;20199;-62
2022/07/21 10:03:58;;;;;;;1999.90;999.90;;;19.20;99.90;;;;;;5072394;28;20207;-62
2022/07/21 10:06:27;;;;;;;1999.90;999.90;;;19.20;99.90;;;;;;5072554;28;20195;-61
2022/07/21 10:08:55;;;;;;;1999.90;999.90;;;19.50;99.90;;;;;;5072532;28;20202;-61
2022/07/21 10:11:24;;;;;;;1999.90;999.90;;;19.50;99.90;;;;;;5072393;28;20195;-62
2022/07/21 10:13:52;;;;;;;1999.90;999.90;;;19.40;99.90;;;;;;5072533;28;20203;-61
2022/07/21 10:16:19;;;;;;;1999.90;999.90;;;19.20;99.90;;;;;;5072070;28;20195;-62
2022/07/21 10:18:59;;;;;;;1999.90;999.90;;;19.30;99.90;;;;;;5072441;28;20190;-62
2022/07/21 10:21:36;;;;;;;1999.90;999.90;;;19.20;99.90;;;;;;5072436;28;20224;-62
2022/07/21 10:24:04;;;;;;;1999.90;999.90;;;19.20;99.90;;;;;;5072164;28;20178;-62
2022/07/21 10:26:33;;;;;;;1999.90;999.90;;;19.10;99.90;;;;;;5072413;28;20198;-61
2022/07/21 10:29:00;;;;;;;1999.90;999.90;;;19.30;99.90;;;;;;5071951;28;20541;-62
2022/07/21 10:31:28;;;;;;;1999.90;999.90;;;19.10;99.90;;;;;;5072281;28;20400;-62
2022/07/21 10:34:02;;;;;;;1999.90;999.90;;;19.10;99.90;;;;;;5072233;28;20198;-62
2022/07/21 10:36:46;;;;;;;1999.90;999.90;;;19.10;99.90;;;;;;5071733;28;20226;-62
2022/07/21 10:39:26;;;;;;;1999.90;999.90;;;19.20;99.90;;;;;;5072210;28;20187;-62
2022/07/21 10:42:01;;;;;;;1999.90;999.90;;;19.20;99.90;;;;;;5072487;28;20179;-61
2022/07/21 10:44:40;;;;;;;1999.90;999.90;;;19.00;99.90;;;;;;5072292;28;20649;-61
2022/07/21 10:47:08;;;;;;;1999.90;999.90;;;19.20;99.90;;;;;;5072228;28;20206;-61
2022/07/21 10:49:54;;;;;;;1999.90;999.90;;;19.20;99.90;;;;;;5071651;28;20203;-61
2022/07/21 10:52:59;;;;;;;1999.90;999.90;;;19.20;99.90;;;;;;5072086;28;20202;-61
2022/07/21 10:55:29;;;;;;;1999.90;999.90;;;19.20;99.90;;;;;;5072155;28;20179;-62
2022/07/21 10:58:26;;;;;;;1999.90;999.90;;;19.30;99.90;;;;;;5072461;28;20201;-61
2022/07/21 11:00:54;;;;;;;1999.90;999.90;;;19.20;99.90;;;;;;5055349;28;20244;-61
2022/07/21 11:03:28;;;;;;;1999.90;999.90;;;19.20;99.90;;;;;;5076179;28;20205;-61
2022/07/21 11:06:22;;;;;;;1999.90;999.90;;;19.20;99.90;;;;;;5076144;28;20187;-61
2022/07/21 11:08:51;;;;;;;1999.90;999.90;;;19.20;99.90;;;;;;5076153;28;20190;-62
2022/07/21 11:11:19;;;;;;;1999.90;999.90;;;19.30;99.90;;;;;;5076089;28;20202;-61
2022/07/21 11:14:07;;;;;;;1999.90;999.90;;;19.00;99.90;;;;;;5075684;28;20222;-62
2022/07/21 11:17:02;;;;;;;1999.90;999.90;;;19.20;99.90;;;;;;5075550;28;20190;-62
2022/07/21 11:19:32;;;;;;;1999.90;999.90;;;18.80;99.90;;;;;;5075633;28;20179;-62
2022/07/21 11:22:01;;;;;;;1999.90;999.90;;;18.90;99.90;;;;;;5075353;28;20195;-61
2022/07/21 11:24:29;;;;;;;1999.90;999.90;;;18.70;99.90;;;;;;5075623;28;20195;-60
2022/07/21 11:26:56;;;;;;;1999.90;999.90;;;18.60;99.90;;;;;;5075695;28;20205;-61
2022/07/21 11:29:25;;;;;;;1999.90;999.90;;;18.60;99.90;;;;;;5075301;28;20729;-61
2022/07/21 11:31:52;;;;;;;1999.90;999.90;;;18.60;99.90;;;;;;5075485;28;20199;-61
2022/07/21 11:34:20;;;;;;;1999.90;999.90;;;18.90;99.90;;;;;;5075222;28;20194;-60
2022/07/21 11:36:48;;;;;;;1999.90;999.90;;;18.70;99.90;;;;;;5075082;28;20245;-60
2022/07/21 11:39:18;;;;;;;1999.90;999.90;;;18.80;99.90;;;;;;5075416;28;20191;-60
2022/07/21 11:41:46;;;;;;;1999.90;999.90;;;18.90;99.90;;;;;;5075414;28;20183;-60
2022/07/21 11:44:22;;;;;;;1999.90;999.90;;;19.10;99.90;;;;;;5075228;28;20203;-60
2022/07/21 11:46:53;;;;;;;1999.90;999.90;;;19.10;99.90;;;;;;5074910;28;20546;-60
2022/07/21 11:49:20;;;;;;;1999.90;999.90;;;19.30;99.90;;;;;;5074965;28;20184;-60
2022/07/21 11:51:49;;;;;;;1999.90;999.90;;;19.30;99.90;;;;;;5074760;28;20202;-59
2022/07/21 11:54:23;;;;;;;1999.90;999.90;;;19.40;99.90;;;;;;5074893;28;20197;-60
2022/07/21 11:56:51;;;;;;;1999.90;999.90;;;19.50;99.90;;;;;;5075030;28;20206;-60
2022/07/21 11:59:18;;;;;;;1999.90;999.90;;;19.60;99.90;;;;;;5075020;28;20205;-59
2022/07/21 12:01:54;;;;;;;1999.90;999.90;;;19.60;99.90;;;;;;5074605;28;20225;-60
2022/07/21 12:04:32;;;;;;;1999.90;999.90;;;19.40;99.90;;;;;;5075105;28;20195;-58
2022/07/21 12:07:00;;;;;;;1999.90;999.90;;;19.30;99.90;;;;;;5074970;28;20183;-59
2022/07/21 12:09:27;;;;;;;1999.90;999.90;;;19.00;99.90;;;;;;5074430;28;20248;-60